Latest Weather Observations for Mallacoota

IDV60801

Issued at 10:32 pm EDT Saturday 23 February 2019 (issued every 10 minutes, with the page automatically refreshed every 10 minutes)

About weather observations | Map of weather stations | Latest weather observations for VIC | Other Formats
Station Details ID: 084084 Name: MALLACOOTA Lat: -37.60 Lon: 149.73 Height: 22.0 m
Data from the previous 72 hours. | See also: Recent months at Mallacoota
Date/Time
EDT
Temp
°C
App
Temp
°C
Dew
Point
°C
Rel
Hum
%
Delta-T
°C
Wind Press
QNH
hPa
Press
MSL
hPa
Rain since
9am
mm
Dir  Spd
km/h
Gust
km/h
Spd
kts
Gust
kts
23/10:30pm 18.0 15.5 11.1 64 3.7 ESE 15 20 8 11 1029.2 1029.2 0.2
23/10:00pm 18.1 16.4 11.2 64 3.7 ESE 11 22 6 12 1029.1 1029.1 0.2
23/09:30pm 18.0 17.0 11.1 64 3.7 ENE 7 19 4 10 1028.8 1028.8 0.2
23/09:00pm 18.1 16.0 11.2 64 3.7 ESE 13 28 7 15 1028.5 1028.5 0.2
23/08:30pm 18.2 17.2 12.2 68 3.3 E 9 19 5 10 1028.1 1028.1 0.2
23/08:00pm 18.2 17.3 12.6 70 3.1 SE 9 20 5 11 1027.9 1027.9 0.2
23/07:30pm 18.5 17.0 13.1 71 3.0 ESE 13 20 7 11 1027.5 1027.5 0.2
23/07:00pm 18.4 17.4 13.5 73 2.8 SSW 11 20 6 11 1027.1 1027.1 0.2
23/06:30pm 18.7 18.0 14.4 76 2.5 ESE 11 19 6 10 1027.0 1027.0 0.2
23/06:00pm 18.0 16.3 14.7 81 1.9 SSW 17 30 9 16 1026.8 1026.8 0.2
23/05:30pm 19.3 16.9 13.9 71 3.1 SSW 19 30 10 16 1026.7 1026.7 0.0
23/05:00pm 20.7 18.2 13.4 63 4.2 S 19 28 10 15 1026.4 1026.4 0.0
23/04:30pm 21.3 19.2 13.7 62 4.4 SSW 17 26 9 14 1026.3 1026.3 0.0
23/04:00pm 21.7 19.8 14.1 62 4.4 S 17 26 9 14 1026.3 1026.3 0.0
23/03:30pm 21.6 19.3 14.0 62 4.4 S 19 26 10 14 1026.3 1026.3 0.0
23/03:00pm 21.1 18.6 13.5 62 4.3 S 19 30 10 16 1026.2 1026.2 0.0
23/02:30pm 21.4 18.8 13.3 60 4.6 S 19 30 10 16 1026.4 1026.4 0.0
23/02:00pm 20.8 17.8 13.7 64 4.1 S 22 32 12 17 1026.5 1026.5 0.0
23/01:30pm 20.8 17.8 12.5 59 4.7 SSW 20 30 11 16 1026.5 1026.5 0.0
23/01:00pm 20.0 17.2 12.7 63 4.1 S 19 28 10 15 1026.5 1026.5 0.0
23/12:30pm 19.9 17.5 12.7 63 4.1 SSW 17 28 9 15 1026.5 1026.5 0.0
23/12:00pm 19.7 17.3 12.7 64 3.9 SSW 17 24 9 13 1026.5 1026.5 0.0
23/11:30am 19.4 16.1 11.7 61 4.3 SSW 20 32 11 17 1026.5 1026.5 0.0
23/11:00am 19.4 16.6 12.7 65 3.7 S 19 32 10 17 1026.2 1026.2 0.0
23/10:30am 19.2 17.0 12.2 64 3.9 SSW 15 26 8 14 1025.8 1025.8 0.0
23/10:00am 18.9 17.2 12.4 66 3.6 SW 13 22 7 12 1025.7 1025.7 0.0
23/09:30am 18.8 17.0 12.1 65 3.7 SW 13 22 7 12 1025.5 1025.5 0.0
23/09:00am 18.5 17.1 12.3 67 3.4 WSW 11 19 6 10 1025.5 1025.5 0.0
23/08:30am 17.6 16.1 11.9 69 3.1 WSW 11 17 6 9 1025.3 1025.3 0.0
23/08:00am 16.7 15.7 12.3 75 2.4 W 9 20 5 11 1025.0 1025.0 0.0
23/07:30am 15.3 14.1 11.7 79 1.9 W 9 11 5 6 1024.7 1024.7 0.0
23/07:00am 14.8 13.5 11.2 79 1.9 WNW 9 13 5 7 1024.3 1024.3 0.0
23/06:30am 14.6 12.9 11.2 80 1.8 WNW 11 17 6 9 1024.0 1024.0 0.0
23/06:00am 14.6 13.3 11.4 81 1.7 WNW 9 13 5 7 1023.7 1023.7 0.0
23/05:30am 14.5 12.9 11.5 82 1.6 WNW 11 17 6 9 1023.4 1023.4 0.0
23/05:00am 14.3 13.1 11.5 83 1.5 WNW 9 13 5 7 1023.1 1023.1 0.0
23/04:30am 14.1 12.8 11.4 84 1.4 WNW 9 13 5 7 1023.1 1023.1 0.0
23/04:00am 13.9 12.2 11.2 84 1.4 WNW 11 13 6 7 1023.2 1023.2 0.0
23/03:30am 13.9 12.3 11.4 85 1.3 WNW 11 17 6 9 1023.2 1023.2 0.0
23/03:00am 13.6 11.9 11.1 85 1.3 WNW 11 15 6 8 1023.3 1023.3 0.0
23/02:30am 13.7 12.4 11.4 86 1.2 WNW 9 15 5 8 1023.4 1023.4 0.0
23/02:00am 13.6 12.4 11.5 87 1.1 WNW 9 15 5 8 1023.5 1023.5 0.0
23/01:30am 13.0 11.2 10.9 87 1.1 WNW 11 15 6 8 1023.6 1023.6 0.0
23/01:00am 12.9 11.1 10.8 87 1.1 WNW 11 13 6 7 1023.8 1023.8 0.0
23/12:30am 12.9 11.5 10.8 87 1.1 WNW 9 13 5 7 1023.9 1023.9 0.0
23/12:00am 13.0 11.5 10.7 86 1.2 WNW 9 11 5 6 1023.9 1023.9 0.0
 
Date/Time
EDT
Temp
°C
App
Temp
°C
Dew
Point
°C
Rel
Hum
%
Delta-T
°C
Wind Press
QNH
hPa
Press
MSL
hPa
Rain since
9am
mm
Dir  Spd
km/h
Gust
km/h
Spd
kts
Gust
kts
22/11:30pm 13.6 12.3 11.1 85 1.3 WNW 9 13 5 7 1024.2 1024.2 0.0
22/11:00pm 13.6 12.3 11.1 85 1.3 WNW 9 11 5 6 1024.3 1024.3 0.0
22/10:30pm 13.7 12.3 11.0 84 1.4 WNW 9 11 5 6 1024.3 1024.3 0.0
22/10:00pm 14.2 12.9 11.2 82 1.6 WNW 9 11 5 6 1024.3 1024.3 0.0
22/09:30pm 14.4 13.5 11.2 81 1.7 WNW 7 9 4 5 1024.0 1024.0 0.0
22/09:00pm 14.7 13.8 10.5 76 2.2 W 6 9 3 5 1023.7 1023.7 0.0
22/08:30pm 15.9 14.6 11.1 73 2.6 WSW 9 11 5 6 1023.3 1023.3 0.0
22/08:00pm 16.7 15.8 11.2 70 3.0 SW 7 13 4 7 1023.2 1023.2 0.0
22/07:30pm 17.7 16.2 11.9 69 3.2 SSW 11 17 6 9 1023.1 1023.1 0.0
22/07:00pm 18.5 16.4 12.3 67 3.4 S 15 22 8 12 1022.8 1022.8 0.0
22/06:30pm 19.0 16.9 12.3 65 3.7 S 15 24 8 13 1022.6 1022.6 0.0
22/06:00pm 19.6 17.1 12.4 63 4.0 S 17 30 9 16 1022.5 1022.5 0.0
22/05:30pm 19.5 16.6 12.8 65 3.8 S 20 30 11 16 1022.5 1022.5 0.0
22/05:00pm 19.7 16.9 12.7 64 3.9 S 19 30 10 16 1022.5 1022.5 0.0
22/04:30pm 20.7 18.5 13.2 62 4.3 S 17 24 9 13 1022.5 1022.5 0.0
22/04:00pm 20.6 17.7 12.8 61 4.4 S 20 30 11 16 1022.5 1022.5 0.0
22/03:30pm 20.8 18.1 13.0 61 4.4 S 19 33 10 18 1022.5 1022.5 0.0
22/03:00pm 20.6 17.5 13.3 63 4.2 S 22 35 12 19 1022.8 1022.8 0.0
22/02:30pm 19.5 16.7 12.5 64 3.9 S 19 28 10 15 1022.8 1022.8 0.0
22/02:00pm 20.7 18.1 13.2 62 4.3 S 19 30 10 16 1023.0 1023.0 0.0
22/01:30pm 20.0 17.5 13.5 66 3.7 S 19 28 10 15 1023.1 1023.1 0.0
22/01:00pm 19.6 17.3 13.1 66 3.7 S 17 28 9 15 1023.2 1023.2 0.0
22/12:30pm 19.9 18.3 12.7 63 4.1 SSW 13 20 7 11 1023.3 1023.3 0.0
22/12:00pm 19.6 17.4 12.1 62 4.2 SW 15 24 8 13 1023.4 1023.4 0.0
22/11:30am 19.4 18.1 12.4 64 3.9 SW 11 17 6 9 1023.5 1023.5 0.0
22/11:00am 19.7 19.0 13.2 66 3.7 WSW 9 15 5 8 1023.7 1023.7 0.0
22/10:30am 18.7 16.8 11.8 64 3.8 WSW 13 20 7 11 1023.7 1023.7 0.0
22/10:00am 19.1 17.4 12.4 65 3.7 WSW 13 28 7 15 1023.4 1023.4 0.0
22/09:30am 18.5 16.8 12.5 68 3.3 WSW 13 22 7 12 1023.1 1023.1 0.0
22/09:00am 17.8 16.4 12.3 70 3.0 W 11 20 6 11 1023.0 1023.0 0.0
22/08:30am 17.5 16.1 12.2 71 2.9 W 11 17 6 9 1022.9 1022.9 0.0
22/08:00am 16.6 15.3 12.6 77 2.2 W 11 19 6 10 1022.6 1022.6 0.0
22/07:30am 15.2 13.8 12.2 82 1.6 WNW 11 17 6 9 1022.4 1022.4 0.0
22/07:00am 14.3 13.2 11.8 85 1.3 WNW 9 15 5 8 1022.3 1022.3 0.0
22/06:30am 14.0 12.4 11.7 86 1.2 W 11 17 6 9 1022.0 1022.0 0.0
22/06:00am 13.9 12.7 11.6 86 1.2 W 9 15 5 8 1021.5 1021.5 0.0
22/05:30am 14.2 13.4 11.7 85 1.3 W 7 15 4 8 1021.4 1021.4 0.0
22/05:00am 14.4 13.2 11.7 84 1.4 WNW 9 15 5 8 1021.4 1021.4 0.0
22/04:30am 14.7 13.5 11.7 82 1.6 W 9 17 5 9 1021.5 1021.5 0.0
22/04:00am 15.3 14.2 12.1 81 1.7 W 9 17 5 9 1021.7 1021.7 0.0
22/03:30am 15.4 14.0 12.3 82 1.7 W 11 17 6 9 1022.0 1022.0 0.0
22/03:00am 15.3 13.5 12.2 82 1.7 WNW 13 20 7 11 1021.9 1021.9 0.0
22/02:30am 15.2 14.2 12.2 82 1.6 WNW 9 20 5 11 1021.8 1021.8 0.0
22/02:00am 15.3 13.9 12.1 81 1.7 WNW 11 17 6 9 1022.0 1022.0 0.0
22/01:30am 15.6 14.0 11.6 77 2.2 WNW 11 15 6 8 1022.0 1022.0 0.0
22/01:00am 16.2 14.9 11.4 73 2.6 WNW 9 15 5 8 1021.9 1021.9 0.0
22/12:30am 16.5 15.2 11.4 72 2.8 WNW 9 17 5 9 1021.9 1021.9 0.0
22/12:00am 16.5 15.2 11.4 72 2.7 WNW 9 13 5 7 1022.0 1022.0 0.0
 
Date/Time
EDT
Temp
°C
App
Temp
°C
Dew
Point
°C
Rel
Hum
%
Delta-T
°C
Wind Press
QNH
hPa
Press
MSL
hPa
Rain since
9am
mm
Dir  Spd
km/h
Gust
km/h
Spd
kts
Gust
kts
21/11:30pm 16.6 15.3 11.3 71 2.9 WNW 9 13 5 7 1021.9 1021.9 0.0
21/11:00pm 16.7 15.8 11.4 71 2.9 WNW 7 11 4 6 1021.9 1021.9 0.0
21/10:30pm 16.8 16.1 11.5 71 2.9 WNW 6 9 3 5 1021.8 1021.8 0.0
21/10:00pm 16.8 16.1 11.3 70 3.0 WNW 6 11 3 6 1021.8 1021.8 0.0
21/09:30pm 17.0 16.3 11.3 69 3.1 W 6 11 3 6 1021.5 1021.5 0.0
21/09:00pm 17.1 15.8 11.2 68 3.2 SW 9 17 5 9 1021.0 1021.0 0.0
21/08:30pm 17.1 15.7 10.9 67 3.3 SW 9 17 5 9 1020.7 1020.7 0.0
21/08:00pm 17.0 15.1 10.6 66 3.4 SW 11 17 6 9 1020.4 1020.4 0.0
21/07:30pm 17.5 14.0 10.1 62 3.9 SW 19 28 10 15 1020.1 1020.1 0.0
21/07:00pm 18.2 14.1 10.1 59 4.3 SW 22 33 12 18 1019.8 1019.8 0.0
21/06:30pm 18.8 14.2 9.8 56 4.8 SW 24 41 13 22 1019.6 1019.6 0.0
21/06:00pm 19.3 15.6 10.3 56 4.8 SW 20 37 11 20 1019.3 1019.3 0.0
21/05:30pm 19.1 14.6 10.1 56 4.8 SSW 24 39 13 21 1019.1 1019.1 0.0
21/05:14pm 19.5 14.3 10.2 55 5.0 SSW 28 46 15 25 1019.0 1018.9 0.0
21/05:00pm 19.2 15.3 10.7 58 4.6 SSW 22 35 12 19 1018.9 1018.8 0.0
21/04:30pm 20.1 15.7 10.5 54 5.2 SSW 24 41 13 22 1018.7 1018.6 0.0
21/04:00pm 20.6 16.4 11.0 54 5.3 SSW 24 43 13 23 1018.5 1018.4 0.0
21/03:30pm 20.8 15.9 11.4 55 5.2 SSW 28 39 15 21 1018.4 1018.3 0.0
21/03:00pm 21.1 17.3 11.2 53 5.5 SSW 22 39 12 21 1018.6 1018.5 0.0
21/02:30pm 20.9 16.4 10.1 50 5.8 SSW 24 37 13 20 1018.5 1018.4 0.0
21/02:00pm 20.8 16.6 9.7 49 5.9 SSW 22 33 12 18 1018.7 1018.6 0.0
21/01:30pm 20.8 16.7 10.0 50 5.8 SW 22 39 12 21 1018.7 1018.6 0.0
21/01:00pm 21.5 18.0 10.9 51 5.8 SW 20 32 11 17 1018.8 1018.7 0.0
21/12:30pm 20.7 17.8 11.1 54 5.3 SW 17 30 9 16 1018.9 1018.8 0.0
21/12:00pm 20.0 16.7 11.0 56 4.9 SSW 19 30 10 16 1019.0 1018.9 0.0
21/11:30am 20.0 17.2 11.2 57 4.8 SW 17 30 9 16 1019.0 1018.9 0.0
21/11:00am 18.9 17.2 12.6 67 3.5 SW 13 22 7 12 1019.0 1018.9 0.0
21/10:30am 18.5 16.3 12.0 66 3.6 SW 15 24 8 13 1018.9 1018.8 0.0
21/10:00am 18.8 17.3 13.2 70 3.2 SW 13 22 7 12 1018.8 1018.7 0.0
21/09:30am 18.7 16.3 12.5 67 3.5 WSW 17 32 9 17 1018.5 1018.4 0.0
21/09:00am 18.6 17.4 12.8 69 3.2 W 11 26 6 14 1018.1 1018.0 0.0
21/08:30am 17.8 17.4 12.9 73 2.7 W 7 13 4 7 1017.8 1017.7 0.0
21/08:00am 16.2 15.3 12.6 79 2.0 NW 9 13 5 7 1017.3 1017.2 0.0
21/07:30am 14.9 14.3 12.2 84 1.5 NW 7 13 4 7 1016.9 1016.8 0.0
21/07:00am 13.8 12.5 11.3 85 1.3 NNW 9 13 5 7 1016.4 1016.3 0.0
21/06:30am 13.7 11.9 11.0 84 1.4 NNW 11 13 6 7 1016.1 1016.0 0.0
21/06:00am 13.6 12.2 10.8 83 1.5 NNW 9 13 5 7 1015.7 1015.6 0.0
21/05:30am 14.2 12.8 10.8 80 1.8 NW 9 11 5 6 1015.4 1015.3 0.0
21/05:00am 14.4 12.9 10.6 78 2.0 W 9 13 5 7 1015.2 1015.1 0.0
21/04:30am 14.7 13.3 10.9 78 2.0 WNW 9 13 5 7 1015.3 1015.2 0.0
21/04:00am 14.9 13.1 10.9 77 2.1 W 11 17 6 9 1015.2 1015.1 0.0
21/03:30am 14.8 13.4 10.8 77 2.1 W 9 15 5 8 1015.3 1015.2 0.0
21/03:00am 14.7 13.2 10.5 76 2.2 W 9 13 5 7 1015.3 1015.2 0.0
21/02:30am 15.4 14.0 11.0 75 2.3 WNW 9 15 5 8 1015.4 1015.3 0.0
21/02:00am 15.4 14.0 10.8 74 2.4 WNW 9 15 5 8 1015.6 1015.5 0.0
21/01:30am 15.6 14.2 11.0 74 2.5 WNW 9 13 5 7 1015.7 1015.6 0.0
21/01:00am 16.1 15.1 11.1 72 2.7 WNW 7 11 4 6 1016.0 1015.9 0.0
21/12:30am 16.5 15.6 11.2 71 2.9 WNW 7 13 4 7 1016.1 1016.0 0.0
21/12:00am 16.6 15.7 11.3 71 2.9 WNW 7 13 4 7 1016.2 1016.1 0.0
 
Date/Time
EDT
Temp
°C
App
Temp
°C
Dew
Point
°C
Rel
Hum
%
Delta-T
°C
Wind Press
QNH
hPa
Press
MSL
hPa
Rain since
9am
mm
Dir  Spd
km/h
Gust
km/h
Spd
kts
Gust
kts
20/11:30pm 16.5 14.9 11.4 72 2.8 WNW 11 15 6 8 1016.2 1016.1 0.0
20/11:00pm 16.2 15.4 11.6 74 2.5 WNW 7 11 4 6 1016.1 1016.0 0.0

Other formats

Comma delimited format used in spreadsheet applications
http://www.bom.gov.au/fwo/IDV60801/IDV60801.94935.axf

JavaScript Object Notation format (JSON) in row-major order
http://www.bom.gov.au/fwo/IDV60801/IDV60801.94935.json

Data quality

Most of these data are generated automatically and are frequently updated. Quality checks on data are not normally performed. It is possible for incorrect values to appear. Refer to information at About Latest Weather Observations and please check the disclaimer before using these data.